createdAt,value
2018-03-25T00:01:12.800Z,79.20
2018-03-25T00:03:41.066Z,79.00
2018-03-25T00:06:08.546Z,79.00
2018-03-25T00:08:36.795Z,80.00
2018-03-25T00:11:05.073Z,80.40
2018-03-25T00:13:33.468Z,80.90
2018-03-25T00:16:01.735Z,80.80
2018-03-25T00:18:30.002Z,80.80
2018-03-25T00:20:58.558Z,81.20
2018-03-25T00:23:26.081Z,80.90
2018-03-25T00:25:53.560Z,81.80
2018-03-25T00:28:21.046Z,81.80
2018-03-25T00:30:48.536Z,82.40
2018-03-25T00:33:16.046Z,82.90
2018-03-25T00:35:43.515Z,83.40
2018-03-25T00:38:10.991Z,84.00
2018-03-25T00:40:38.464Z,83.90
2018-03-25T00:43:05.947Z,84.30
2018-03-25T00:45:33.431Z,84.00
2018-03-25T00:48:00.913Z,83.90
2018-03-25T00:50:29.192Z,84.30
2018-03-25T00:52:57.433Z,84.40
2018-03-25T00:55:25.696Z,84.30
2018-03-25T00:57:53.192Z,84.30
2018-03-25T01:00:21.431Z,84.20
2018-03-25T01:02:48.927Z,84.20
2018-03-25T01:05:16.485Z,84.30
2018-03-25T01:07:44.761Z,84.80
2018-03-25T01:10:12.303Z,84.80
2018-03-25T01:12:40.542Z,85.10
2018-03-25T01:15:08.048Z,85.10
2018-03-25T01:17:36.290Z,85.30
2018-03-25T01:20:03.823Z,85.30
2018-03-25T01:22:31.346Z,85.50
2018-03-25T01:24:58.850Z,85.40
2018-03-25T01:27:26.366Z,85.50
2018-03-25T01:29:53.836Z,86.00
2018-03-25T01:32:21.340Z,85.70
2018-03-25T01:34:48.828Z,85.60
2018-03-25T01:37:16.323Z,86.10
2018-03-25T01:39:43.780Z,85.80
2018-03-25T01:42:11.271Z,85.60
2018-03-25T01:44:38.731Z,85.50
2018-03-25T01:47:06.988Z,85.70
2018-03-25T01:49:34.448Z,85.70
2018-03-25T01:52:01.924Z,86.30
2018-03-25T01:54:30.172Z,86.80
2018-03-25T01:56:57.664Z,86.70
2018-03-25T01:59:25.154Z,86.70
2018-03-25T02:01:52.610Z,86.70
2018-03-25T02:04:20.086Z,86.80
2018-03-25T02:06:47.558Z,87.40
2018-03-25T02:09:15.804Z,86.30
2018-03-25T02:11:43.264Z,86.30
2018-03-25T02:14:10.845Z,86.00
2018-03-25T02:16:38.347Z,86.10
2018-03-25T02:19:05.842Z,86.10
2018-03-25T02:21:33.340Z,85.90
2018-03-25T02:24:01.608Z,86.30
2018-03-25T02:26:29.837Z,86.70
2018-03-25T02:28:57.337Z,86.70
2018-03-25T02:31:25.566Z,87.20
2018-03-25T02:33:53.056Z,87.20
2018-03-25T02:36:20.526Z,87.50
2018-03-25T02:38:48.014Z,87.50
2018-03-25T02:41:15.541Z,87.90
2018-03-25T02:43:43.807Z,87.60
2018-03-25T02:46:12.064Z,87.00
2018-03-25T02:48:39.546Z,87.00
2018-03-25T02:51:09.514Z,87.70
2018-03-25T02:53:36.980Z,87.50
2018-03-25T02:56:04.458Z,87.60
2018-03-25T02:58:31.919Z,87.60
2018-03-25T03:01:00.172Z,88.00
2018-03-25T03:03:28.427Z,88.00
2018-03-25T03:05:55.912Z,88.00
2018-03-25T03:08:23.461Z,88.20
2018-03-25T03:10:50.950Z,88.30
2018-03-25T03:13:18.430Z,88.00
2018-03-25T03:15:45.950Z,88.10
2018-03-25T03:18:13.505Z,87.80
2018-03-25T03:20:41.751Z,87.90
2018-03-25T03:23:09.232Z,87.90
2018-03-25T03:25:36.815Z,88.00
2018-03-25T03:28:05.039Z,87.90
2018-03-25T03:30:32.524Z,87.80
2018-03-25T03:33:00.005Z,88.10
2018-03-25T03:35:27.481Z,88.50
2018-03-25T03:37:54.962Z,88.90
2018-03-25T03:40:22.503Z,88.90
2018-03-25T03:42:51.366Z,89.00
2018-03-25T03:45:21.499Z,89.10
2018-03-25T03:47:48.993Z,89.00
2018-03-25T03:50:16.472Z,88.80
2018-03-25T03:52:44.708Z,89.60
2018-03-25T03:55:12.241Z,88.80
2018-03-25T03:57:39.726Z,88.70
2018-03-25T04:00:07.199Z,89.00
2018-03-25T04:02:34.945Z,88.70
2018-03-25T04:05:02.433Z,88.50
2018-03-25T04:07:29.918Z,89.10
2018-03-25T04:09:57.403Z,89.00
2018-03-25T04:12:24.859Z,89.20
2018-03-25T04:14:52.352Z,89.50
2018-03-25T04:17:19.845Z,89.70
2018-03-25T04:19:47.347Z,89.50
2018-03-25T04:22:14.826Z,89.10
2018-03-25T04:24:42.319Z,88.90
2018-03-25T04:27:09.804Z,89.30
2018-03-25T04:29:37.278Z,89.80
2018-03-25T04:32:04.786Z,90.00
2018-03-25T04:34:32.268Z,90.00
2018-03-25T04:36:59.736Z,90.00
2018-03-25T04:39:27.285Z,90.00
2018-03-25T04:41:54.764Z,90.20
2018-03-25T04:44:22.269Z,90.10
2018-03-25T04:46:49.768Z,90.10
2018-03-25T04:49:17.278Z,90.40
2018-03-25T04:51:44.751Z,90.40
2018-03-25T04:54:12.232Z,90.40
2018-03-25T04:56:40.572Z,90.30
2018-03-25T04:59:08.039Z,90.40
2018-03-25T05:01:35.520Z,90.40
2018-03-25T05:04:03.000Z,90.40
2018-03-25T05:06:31.322Z,90.70
2018-03-25T05:08:58.818Z,90.70
2018-03-25T05:11:26.314Z,90.80
2018-03-25T05:13:53.773Z,90.80
2018-03-25T05:16:21.260Z,90.70
2018-03-25T05:18:49.319Z,90.70
2018-03-25T05:21:16.799Z,91.00
2018-03-25T05:23:44.270Z,90.60
2018-03-25T05:26:11.761Z,90.50
2018-03-25T05:28:40.040Z,90.50
2018-03-25T05:31:07.511Z,90.50
2018-03-25T05:33:35.000Z,90.50
2018-03-25T05:36:02.478Z,90.60
2018-03-25T05:38:29.970Z,90.70
2018-03-25T05:40:57.461Z,90.70
2018-03-25T05:43:24.951Z,90.70
2018-03-25T05:45:53.785Z,90.60
2018-03-25T05:48:21.271Z,90.60
2018-03-25T05:50:48.750Z,90.50
2018-03-25T05:53:16.250Z,90.20
2018-03-25T05:55:43.715Z,90.10
2018-03-25T05:58:11.211Z,89.20
2018-03-25T06:00:38.696Z,88.40
2018-03-25T06:03:06.271Z,87.50
2018-03-25T06:05:33.776Z,87.00
2018-03-25T06:08:01.248Z,86.70
2018-03-25T06:10:29.501Z,84.00
2018-03-25T06:12:57.332Z,84.10
2018-03-25T06:15:24.842Z,83.80
2018-03-25T06:17:52.315Z,81.20
2018-03-25T06:20:20.582Z,78.30
2018-03-25T06:22:48.865Z,77.60
2018-03-25T06:25:17.139Z,76.80
2018-03-25T06:27:45.387Z,76.70
2018-03-25T06:30:14.432Z,74.10
2018-03-25T06:32:41.943Z,74.20
2018-03-25T06:35:09.499Z,71.90
2018-03-25T06:37:36.953Z,69.10
2018-03-25T06:40:04.439Z,67.00
2018-03-25T06:42:32.692Z,62.60
2018-03-25T06:45:00.939Z,60.90
2018-03-25T06:47:28.443Z,60.80
2018-03-25T06:49:55.894Z,58.00
2018-03-25T06:52:23.408Z,56.90
2018-03-25T06:54:50.882Z,55.20
2018-03-25T06:57:18.370Z,53.20
2018-03-25T06:59:45.845Z,52.80
2018-03-25T07:02:13.326Z,50.20
2018-03-25T07:04:40.796Z,48.40
2018-03-25T07:07:09.806Z,46.30
2018-03-25T07:09:38.060Z,45.00
2018-03-25T07:12:05.660Z,45.00
2018-03-25T07:14:33.913Z,44.50
2018-03-25T07:17:01.381Z,44.50
2018-03-25T07:19:29.697Z,41.90
2018-03-25T07:21:57.159Z,41.90
2018-03-25T07:24:24.648Z,41.80
2018-03-25T07:26:52.577Z,41.20
2018-03-25T07:29:20.146Z,40.00
2018-03-25T07:31:47.627Z,39.30
2018-03-25T07:34:15.182Z,38.90
2018-03-25T07:36:42.658Z,38.30
2018-03-25T07:39:11.027Z,37.80
2018-03-25T07:41:39.344Z,37.30
2018-03-25T07:44:06.842Z,37.30
2018-03-25T07:46:34.311Z,37.60
2018-03-25T07:49:02.575Z,36.40
2018-03-25T07:51:30.067Z,36.30
2018-03-25T07:53:57.568Z,35.30
2018-03-25T07:56:25.099Z,34.40
2018-03-25T07:58:52.583Z,33.80
2018-03-25T08:01:20.107Z,33.30
2018-03-25T08:03:47.609Z,32.90
2018-03-25T08:06:15.076Z,32.60
2018-03-25T08:08:42.568Z,32.60
2018-03-25T08:11:10.123Z,31.90
2018-03-25T08:13:37.595Z,30.90
2018-03-25T08:16:05.087Z,30.80
2018-03-25T08:18:32.556Z,30.20
2018-03-25T08:21:00.052Z,30.00
2018-03-25T08:23:27.553Z,30.60
2018-03-25T08:25:56.611Z,30.00
2018-03-25T08:28:24.100Z,29.90
2018-03-25T08:30:51.613Z,29.50
2018-03-25T08:33:19.098Z,28.90
2018-03-25T08:35:46.600Z,28.90
2018-03-25T08:38:14.848Z,29.50
2018-03-25T08:40:42.316Z,29.50
2018-03-25T08:43:09.816Z,28.70
2018-03-25T08:45:37.330Z,29.70
2018-03-25T08:48:05.571Z,28.30
2018-03-25T08:50:33.084Z,28.30
2018-03-25T08:53:01.337Z,27.60
2018-03-25T08:55:28.842Z,27.50
2018-03-25T08:57:56.323Z,28.50
2018-03-25T09:00:23.792Z,28.80
2018-03-25T09:02:51.305Z,28.40
2018-03-25T09:05:18.808Z,28.30
2018-03-25T09:07:46.307Z,28.50
2018-03-25T09:10:13.805Z,27.90
2018-03-25T09:12:41.312Z,29.40
2018-03-25T09:15:08.799Z,29.60
2018-03-25T09:17:36.278Z,29.40
2018-03-25T09:20:04.011Z,28.90
2018-03-25T09:22:31.497Z,29.50
2018-03-25T09:24:58.976Z,28.40
2018-03-25T09:27:27.237Z,27.90
2018-03-25T09:29:54.714Z,27.80
2018-03-25T09:32:22.980Z,28.90
2018-03-25T09:34:50.485Z,28.90
2018-03-25T09:37:18.061Z,30.10
2018-03-25T09:39:45.536Z,29.40
2018-03-25T09:42:13.508Z,28.70
2018-03-25T09:44:40.996Z,27.20
2018-03-25T09:47:08.458Z,26.40
2018-03-25T09:49:35.954Z,25.90
2018-03-25T09:52:03.427Z,25.40
2018-03-25T09:54:31.018Z,25.10
2018-03-25T09:56:58.515Z,24.90
2018-03-25T09:59:26.019Z,24.30
2018-03-25T10:02:00.029Z,24.60
2018-03-25T10:04:28.382Z,25.40
2018-03-25T10:06:56.719Z,25.70
2018-03-25T10:09:24.220Z,25.70
2018-03-25T10:11:51.694Z,25.20
2018-03-25T10:14:19.967Z,25.70
2018-03-25T10:16:48.286Z,25.50
2018-03-25T10:19:16.503Z,24.90
2018-03-25T10:21:43.989Z,24.90
2018-03-25T10:24:11.479Z,24.30
2018-03-25T11:37:52.998Z,28.70
2018-03-25T11:40:20.494Z,28.40
2018-03-25T11:42:49.408Z,28.50
2018-03-25T11:45:18.173Z,29.40
2018-03-25T11:47:45.654Z,30.00
2018-03-25T11:50:14.255Z,31.00
2018-03-25T11:52:41.778Z,30.30
2018-03-25T11:55:10.025Z,29.70
2018-03-25T11:57:37.561Z,29.70
2018-03-25T12:00:05.060Z,29.70
2018-03-25T12:02:33.792Z,30.00
2018-03-25T12:05:01.629Z,30.00
2018-03-25T12:07:30.007Z,29.80
2018-03-25T12:09:58.262Z,29.70
2018-03-25T12:12:26.517Z,29.50
2018-03-25T12:14:54.814Z,29.50
2018-03-25T12:17:23.074Z,29.70
2018-03-25T12:19:50.552Z,29.70
2018-03-25T12:22:18.846Z,29.90
2018-03-25T12:24:46.344Z,29.80
2018-03-25T12:27:13.824Z,29.70
2018-03-25T12:29:41.434Z,29.40
2018-03-25T12:32:08.906Z,29.40
2018-03-25T12:34:36.462Z,29.00
2018-03-25T12:37:03.971Z,29.40
2018-03-25T12:39:32.248Z,28.70
2018-03-25T12:42:00.522Z,28.70
2018-03-25T12:44:28.791Z,28.10
2018-03-25T12:46:57.083Z,28.50
2018-03-25T12:49:24.589Z,28.40
2018-03-25T12:51:52.138Z,28.90
2018-03-25T12:54:19.639Z,28.80
2018-03-25T12:56:47.954Z,29.60
2018-03-25T12:59:15.466Z,29.50
2018-03-25T13:01:43.925Z,28.80
2018-03-25T13:04:11.387Z,28.80
2018-03-25T13:06:38.895Z,28.80
2018-03-25T13:09:06.458Z,28.70
2018-03-25T13:11:33.955Z,28.00
2018-03-25T13:14:01.472Z,28.00
2018-03-25T13:16:28.969Z,28.20
2018-03-25T13:18:56.502Z,28.60
2018-03-25T13:21:24.042Z,29.10
2018-03-25T13:23:51.521Z,28.50
2018-03-25T13:26:19.063Z,28.10
2018-03-25T13:28:46.578Z,28.30
2018-03-25T13:31:14.877Z,28.80
2018-03-25T13:33:42.368Z,28.70
2018-03-25T13:36:10.209Z,29.50
2018-03-25T13:38:38.419Z,30.80
2018-03-25T13:41:06.038Z,31.30
2018-03-25T13:43:33.530Z,32.00
2018-03-25T13:46:00.985Z,33.00
2018-03-25T13:48:28.977Z,33.40
2018-03-25T13:50:57.214Z,33.50
2018-03-25T13:53:24.713Z,33.40
2018-03-25T13:55:52.979Z,32.80
2018-03-25T13:58:20.533Z,32.80
2018-03-25T14:00:48.029Z,32.30
2018-03-25T14:03:15.943Z,32.60
2018-03-25T14:05:43.501Z,32.00
2018-03-25T14:08:10.981Z,31.50
2018-03-25T14:10:39.360Z,32.00
2018-03-25T14:13:07.865Z,31.10
2018-03-25T14:15:35.484Z,31.10
2018-03-25T14:18:02.976Z,31.30
2018-03-25T14:20:30.480Z,31.30
2018-03-25T14:22:58.000Z,31.10
2018-03-25T14:25:25.762Z,30.80
2018-03-25T14:27:53.291Z,30.20
2018-03-25T14:30:21.533Z,31.60
2018-03-25T14:32:49.061Z,31.50
2018-03-25T14:35:16.572Z,31.60
2018-03-25T14:37:44.832Z,31.60
2018-03-25T14:40:13.121Z,31.50
2018-03-25T14:42:42.271Z,31.40
2018-03-25T14:45:09.776Z,31.10
2018-03-25T14:47:38.085Z,31.00
2018-03-25T14:50:05.630Z,31.00
2018-03-25T14:52:33.123Z,30.60
2018-03-25T14:55:00.612Z,30.10
2018-03-25T14:57:28.872Z,32.10
2018-03-25T14:59:56.378Z,32.10
2018-03-25T15:02:23.913Z,33.00
2018-03-25T15:04:51.411Z,32.80
2018-03-25T15:07:18.956Z,32.90
2018-03-25T15:09:46.395Z,32.80
2018-03-25T15:12:13.904Z,32.70
2018-03-25T15:14:41.415Z,32.90
2018-03-25T15:17:08.978Z,32.80
2018-03-25T15:19:37.306Z,32.80
2018-03-25T15:22:04.793Z,32.90
2018-03-25T15:24:32.307Z,33.30
2018-03-25T15:27:01.360Z,33.70
2018-03-25T15:29:28.854Z,33.90
2018-03-25T15:31:56.354Z,33.90
2018-03-25T15:34:24.640Z,34.40
2018-03-25T15:36:52.285Z,34.40
2018-03-25T15:39:20.539Z,34.50
2018-03-25T15:41:48.829Z,34.90
2018-03-25T15:44:17.088Z,34.80
2018-03-25T15:46:45.457Z,35.60
2018-03-25T15:49:13.722Z,35.90
2018-03-25T15:51:41.297Z,35.90
2018-03-25T15:54:08.778Z,35.80
2018-03-25T15:56:36.301Z,35.80
2018-03-25T15:59:03.809Z,35.90
2018-03-25T16:01:31.334Z,35.90
2018-03-25T16:03:59.805Z,36.80
2018-03-25T16:06:29.065Z,37.00
2018-03-25T16:08:56.569Z,37.00
2018-03-25T16:11:24.836Z,37.30
2018-03-25T16:13:53.089Z,37.20
2018-03-25T16:16:21.377Z,37.10
2018-03-25T16:18:48.877Z,37.10
2018-03-25T16:21:16.425Z,37.50
2018-03-25T16:23:43.952Z,38.30
2018-03-25T16:26:11.429Z,38.50
2018-03-25T16:28:39.450Z,39.10
2018-03-25T16:31:06.987Z,39.30
2018-03-25T16:33:34.497Z,39.50
2018-03-25T16:36:01.998Z,39.80
2018-03-25T16:38:29.487Z,40.10
2018-03-25T16:40:57.000Z,40.70
2018-03-25T16:43:24.495Z,40.60
2018-03-25T16:45:53.503Z,41.20
2018-03-25T16:48:20.992Z,41.20
2018-03-25T16:50:48.670Z,41.50
2018-03-25T16:53:16.182Z,41.40
2018-03-25T16:55:43.671Z,41.50
2018-03-25T16:58:11.165Z,41.80
2018-03-25T17:00:38.673Z,41.80
2018-03-25T17:03:06.175Z,42.20
2018-03-25T17:05:33.666Z,42.30
2018-03-25T17:08:01.949Z,42.50
2018-03-25T17:10:30.203Z,42.70
2018-03-25T17:12:57.703Z,42.70
2018-03-25T17:15:25.198Z,42.80
2018-03-25T17:17:52.703Z,43.00
2018-03-25T17:20:20.195Z,43.50
2018-03-25T17:22:47.723Z,43.60
2018-03-25T17:25:15.227Z,43.40
2018-03-25T17:27:42.711Z,43.40
2018-03-25T17:30:10.983Z,44.00
2018-03-25T17:32:39.278Z,44.00
2018-03-25T17:35:06.791Z,44.00
2018-03-25T17:37:34.289Z,44.30
2018-03-25T17:40:01.802Z,44.30
2018-03-25T17:42:29.294Z,44.60
2018-03-25T17:44:57.557Z,44.90
2018-03-25T17:47:25.820Z,44.70
2018-03-25T17:49:53.333Z,44.70
2018-03-25T17:52:20.835Z,44.80
2018-03-25T17:54:48.328Z,45.10
2018-03-25T17:57:15.799Z,45.70
2018-03-25T17:59:43.309Z,45.60
2018-03-25T18:02:10.812Z,45.60
2018-03-25T18:04:38.298Z,46.10
2018-03-25T18:07:05.817Z,46.40
2018-03-25T18:09:33.337Z,46.50
2018-03-25T18:12:00.832Z,46.70
2018-03-25T18:14:28.345Z,46.60
2018-03-25T18:16:55.882Z,46.80
2018-03-25T18:19:23.414Z,47.00
2018-03-25T18:21:51.609Z,46.90
2018-03-25T18:24:19.253Z,46.90
2018-03-25T18:26:46.662Z,47.30
2018-03-25T18:29:14.918Z,47.10
2018-03-25T18:31:42.493Z,47.10
2018-03-25T18:34:10.009Z,46.90
2018-03-25T18:36:37.514Z,47.00
2018-03-25T18:39:05.924Z,47.00
2018-03-25T18:41:33.429Z,47.20
2018-03-25T18:44:00.933Z,46.90
2018-03-25T18:46:28.445Z,47.00
2018-03-25T18:48:56.725Z,47.40
2018-03-25T18:51:25.005Z,47.20
2018-03-25T18:53:53.279Z,47.30
2018-03-25T18:56:22.530Z,47.50
2018-03-25T18:58:50.061Z,47.30
2018-03-25T19:01:17.552Z,47.60
2018-03-25T19:03:45.064Z,48.20
2018-03-25T19:06:12.560Z,47.70
2018-03-25T19:08:40.094Z,47.80
2018-03-25T19:11:07.872Z,48.70
2018-03-25T19:13:35.372Z,47.80
2018-03-25T19:16:03.720Z,48.30
2018-03-25T19:18:31.342Z,48.30
2018-03-25T19:20:58.839Z,48.40
2018-03-25T19:23:26.403Z,48.40
2018-03-25T19:25:53.909Z,48.60
2018-03-25T19:28:21.494Z,48.70
2018-03-25T19:30:49.033Z,49.00
2018-03-25T19:33:16.616Z,48.80
2018-03-25T19:35:44.288Z,49.00
2018-03-25T19:38:11.884Z,48.90
2018-03-25T19:40:40.152Z,49.40
2018-03-25T19:43:08.528Z,48.80
2018-03-25T19:45:36.993Z,49.20
2018-03-25T19:48:04.803Z,49.20
2018-03-25T19:50:32.303Z,49.30
2018-03-25T19:52:59.803Z,49.10
2018-03-25T19:55:27.292Z,49.00
2018-03-25T19:57:55.179Z,49.10
2018-03-25T20:00:22.712Z,49.80
2018-03-25T20:02:50.196Z,49.70
2018-03-25T20:05:17.696Z,50.10
2018-03-25T20:07:45.191Z,49.90
2018-03-25T20:10:12.672Z,49.90
2018-03-25T20:12:40.168Z,49.90
2018-03-25T20:15:07.651Z,50.70
2018-03-25T20:17:35.171Z,50.00
2018-03-25T20:20:02.651Z,50.60
2018-03-25T20:22:30.156Z,50.30
2018-03-25T20:24:58.426Z,50.40
2018-03-25T20:27:25.914Z,50.40
2018-03-25T20:29:53.440Z,50.30
2018-03-25T20:32:20.917Z,50.10
2018-03-25T20:34:49.200Z,50.10
2018-03-25T20:37:16.679Z,50.10
2018-03-25T20:39:44.211Z,49.90
2018-03-25T20:42:12.701Z,49.90
2018-03-25T20:44:40.214Z,50.10
2018-03-25T20:47:07.734Z,50.50
2018-03-25T20:49:35.259Z,50.10
2018-03-25T20:52:02.763Z,50.40
2018-03-25T20:54:30.281Z,50.40
2018-03-25T20:56:57.759Z,50.70
2018-03-25T20:59:25.290Z,51.20
2018-03-25T21:01:52.796Z,50.50
2018-03-25T21:04:20.315Z,50.40
2018-03-25T21:06:47.790Z,50.50
2018-03-25T21:09:15.257Z,50.50
2018-03-25T21:11:42.760Z,50.50
2018-03-25T21:14:11.017Z,50.70
2018-03-25T21:16:38.617Z,50.70
2018-03-25T21:19:06.085Z,51.10
2018-03-25T21:21:33.578Z,51.20
2018-03-25T21:24:01.063Z,51.90
2018-03-25T21:26:29.306Z,52.40
2018-03-25T21:28:56.780Z,52.40
2018-03-25T21:31:26.407Z,53.40
2018-03-25T21:33:53.900Z,52.80
2018-03-25T21:36:21.421Z,52.80
2018-03-25T21:38:49.676Z,53.00
2018-03-25T21:41:17.936Z,53.40
2018-03-25T21:43:45.414Z,53.40
2018-03-25T21:46:12.923Z,53.40
2018-03-25T21:48:40.421Z,53.50
2018-03-25T21:51:08.707Z,54.00
2018-03-25T21:53:36.191Z,54.00
2018-03-25T21:56:03.699Z,54.40
2018-03-25T21:58:31.165Z,55.50
2018-03-25T22:00:59.392Z,56.00
2018-03-25T22:03:26.911Z,56.00
2018-03-25T22:05:55.127Z,56.20
2018-03-25T22:08:22.608Z,56.20
2018-03-25T22:10:50.077Z,56.30
2018-03-25T22:13:18.339Z,56.30
2018-03-25T22:15:45.806Z,56.30
2018-03-25T22:18:14.051Z,56.60
2018-03-25T22:20:41.546Z,56.60
2018-03-25T22:23:09.787Z,56.70
2018-03-25T22:25:37.272Z,56.70
2018-03-25T22:28:05.518Z,56.60
2018-03-25T22:30:33.028Z,56.60
2018-03-25T22:33:00.532Z,56.40
2018-03-25T22:35:28.015Z,56.40
2018-03-25T22:37:56.303Z,56.50
2018-03-25T22:40:23.795Z,56.40
2018-03-25T22:42:51.269Z,56.60
2018-03-25T22:45:18.778Z,56.50
2018-03-25T22:47:46.370Z,56.50
2018-03-25T22:50:13.905Z,55.70
2018-03-25T22:52:41.370Z,56.80
2018-03-25T22:55:08.925Z,56.90
2018-03-25T22:57:36.536Z,57.00
2018-03-25T23:00:04.840Z,57.30
2018-03-25T23:02:32.410Z,57.30
2018-03-25T23:05:00.751Z,57.90
2018-03-25T23:07:29.005Z,58.00
2018-03-25T23:09:56.654Z,57.80
2018-03-25T23:12:24.161Z,57.70
2018-03-25T23:14:51.627Z,58.00
2018-03-25T23:17:19.126Z,57.90
2018-03-25T23:19:46.616Z,58.00
2018-03-25T23:22:14.189Z,57.70
2018-03-25T23:24:41.802Z,57.70
2018-03-25T23:27:09.290Z,57.90
2018-03-25T23:29:38.090Z,58.20
2018-03-25T23:32:05.575Z,58.20
2018-03-25T23:34:33.065Z,58.60
2018-03-25T23:37:00.555Z,58.50
2018-03-25T23:39:28.051Z,58.70
2018-03-25T23:41:55.540Z,58.60
2018-03-25T23:44:23.057Z,58.70
2018-03-25T23:46:50.527Z,59.50
2018-03-25T23:49:18.003Z,58.80
2018-03-25T23:51:45.543Z,58.70
2018-03-25T23:54:13.019Z,59.00
2018-03-25T23:56:40.557Z,58.80
2018-03-25T23:59:08.090Z,59.00
